createdAt,value
2018-05-27T00:02:07.803Z,57.33
2018-05-27T00:04:42.634Z,57.38
2018-05-27T00:07:17.902Z,57.43
2018-05-27T00:09:53.118Z,57.61
2018-05-27T00:12:28.058Z,57.75
2018-05-27T00:15:02.667Z,57.88
2018-05-27T00:17:37.390Z,57.99
2018-05-27T00:20:12.760Z,58.29
2018-05-27T00:22:47.329Z,58.39
2018-05-27T00:25:21.460Z,58.56
2018-05-27T00:27:56.456Z,58.65
2018-05-27T00:30:31.696Z,58.93
2018-05-27T00:33:06.337Z,59.38
2018-05-27T00:35:41.052Z,59.76
2018-05-27T00:38:15.713Z,60.22
2018-05-27T00:40:50.489Z,60.80
2018-05-27T00:43:25.507Z,60.85
2018-05-27T00:46:00.835Z,61.02
2018-05-27T00:48:35.460Z,61.33
2018-05-27T00:51:10.617Z,61.71
2018-05-27T00:53:56.305Z,62.08
2018-05-27T00:56:31.647Z,62.39
2018-05-27T00:59:06.606Z,62.64
2018-05-27T01:01:41.845Z,62.64
2018-05-27T01:04:16.548Z,62.59
2018-05-27T01:06:51.782Z,62.59
2018-05-27T01:09:26.822Z,62.79
2018-05-27T01:12:02.031Z,63.26
2018-05-27T01:14:37.374Z,63.42
2018-05-27T01:17:12.750Z,63.90
2018-05-27T01:19:47.877Z,64.02
2018-05-27T01:22:23.183Z,64.18
2018-05-27T01:24:58.357Z,64.26
2018-05-27T01:27:33.688Z,64.63
2018-05-27T01:30:09.154Z,64.82
2018-05-27T01:32:44.589Z,65.11
2018-05-27T01:35:20.033Z,65.31
2018-05-27T01:37:54.845Z,65.15
2018-05-27T01:40:29.584Z,65.03
2018-05-27T01:43:04.789Z,65.20
2018-05-27T01:45:39.779Z,65.94
2018-05-27T01:48:14.352Z,66.39
2018-05-27T01:50:49.549Z,66.32
2018-05-27T01:53:24.572Z,66.51
2018-05-27T01:55:59.941Z,66.53
2018-05-27T01:58:34.569Z,66.69
2018-05-27T02:01:09.397Z,66.89
2018-05-27T02:03:44.829Z,67.15
2018-05-27T02:06:19.358Z,67.39
2018-05-27T02:08:54.162Z,67.60
2018-05-27T02:11:29.513Z,67.74
2018-05-27T02:14:03.813Z,67.92
2018-05-27T02:16:38.393Z,68.56
2018-05-27T02:19:12.882Z,68.52
2018-05-27T02:21:48.316Z,68.30
2018-05-27T02:24:23.793Z,68.60
2018-05-27T02:26:59.169Z,68.93
2018-05-27T02:29:34.333Z,69.23
2018-05-27T02:32:10.125Z,69.27
2018-05-27T02:34:44.942Z,69.02
2018-05-27T02:37:20.191Z,68.85
2018-05-27T02:39:55.333Z,68.68
2018-05-27T02:42:30.548Z,69.06
2018-05-27T02:45:04.428Z,69.17
2018-05-27T02:47:39.566Z,69.52
2018-05-27T02:50:14.377Z,69.92
2018-05-27T02:52:49.145Z,70.20
2018-05-27T02:55:24.077Z,70.88
2018-05-27T02:57:58.825Z,70.76
2018-05-27T03:00:33.565Z,70.76
2018-05-27T03:03:08.787Z,70.89
2018-05-27T03:05:43.841Z,70.88
2018-05-27T03:08:18.841Z,71.20
2018-05-27T03:10:54.002Z,71.36
2018-05-27T03:13:29.048Z,71.45
2018-05-27T03:16:04.409Z,71.22
2018-05-27T03:18:39.616Z,71.41
2018-05-27T03:21:14.688Z,71.49
2018-05-27T03:23:49.952Z,71.47
2018-05-27T03:26:24.935Z,71.16
2018-05-27T03:29:00.016Z,71.18
2018-05-27T03:31:35.012Z,71.28
2018-05-27T03:34:10.215Z,71.89
2018-05-27T03:36:45.445Z,72.08
2018-05-27T03:39:20.819Z,72.16
2018-05-27T03:41:55.985Z,72.26
2018-05-27T03:44:31.041Z,72.23
2018-05-27T03:47:06.454Z,72.11
2018-05-27T03:49:41.184Z,72.13
2018-05-27T03:52:15.584Z,72.18
2018-05-27T03:54:50.449Z,72.51
2018-05-27T03:57:26.033Z,73.11
2018-05-27T04:00:03.006Z,73.81
2018-05-27T04:02:38.007Z,73.62
2018-05-27T04:18:47.265Z,74.17
2018-05-27T04:21:22.205Z,74.30
2018-05-27T04:23:57.025Z,74.52
2018-05-27T04:26:31.915Z,74.82
2018-05-27T04:29:06.673Z,75.08
2018-05-27T04:31:45.307Z,74.97
2018-05-27T04:34:20.208Z,74.48
2018-05-27T04:36:56.201Z,74.24
2018-05-27T04:39:30.807Z,73.90
2018-05-27T04:42:05.614Z,73.62
2018-05-27T04:44:41.191Z,73.45
2018-05-27T04:47:16.019Z,73.41
2018-05-27T04:49:50.722Z,73.31
2018-05-27T04:52:25.372Z,73.21
2018-05-27T04:55:00.155Z,73.34
2018-05-27T04:57:34.900Z,73.14
2018-05-27T05:00:09.809Z,72.94
2018-05-27T05:02:44.565Z,72.76
2018-05-27T05:05:19.241Z,72.91
2018-05-27T05:07:54.249Z,73.39
2018-05-27T05:10:29.001Z,73.41
2018-05-27T05:13:03.906Z,73.31
2018-05-27T05:15:38.646Z,73.47
2018-05-27T05:18:13.687Z,73.61
2018-05-27T05:20:48.497Z,73.85
2018-05-27T05:23:23.242Z,74.05
2018-05-27T05:25:58.073Z,74.37
2018-05-27T05:28:33.125Z,74.45
2018-05-27T05:31:08.108Z,74.37
2018-05-27T05:33:43.081Z,74.12
2018-05-27T05:36:17.970Z,74.10
2018-05-27T05:38:52.569Z,74.29
2018-05-27T05:41:27.600Z,73.76
2018-05-27T05:44:02.217Z,73.87
2018-05-27T05:46:36.916Z,73.19
2018-05-27T05:49:11.864Z,72.91
2018-05-27T05:51:46.676Z,72.53
2018-05-27T05:54:21.437Z,72.01
2018-05-27T05:56:56.228Z,72.05
2018-05-27T05:59:30.969Z,71.54
2018-05-27T06:02:05.650Z,71.54
2018-05-27T06:04:40.655Z,71.30
2018-05-27T06:07:15.464Z,71.28
2018-05-27T06:09:50.323Z,71.12
2018-05-27T06:12:25.225Z,71.24
2018-05-27T06:15:00.173Z,70.70
2018-05-27T06:17:34.820Z,70.58
2018-05-27T06:20:09.721Z,71.00
2018-05-27T06:22:44.562Z,71.19
2018-05-27T06:25:19.491Z,70.76
2018-05-27T06:27:54.326Z,70.53
2018-05-27T06:30:29.293Z,69.83
2018-05-27T06:33:04.183Z,69.89
2018-05-27T06:35:39.033Z,69.03
2018-05-27T06:38:13.853Z,68.27
2018-05-27T06:40:48.866Z,68.06
2018-05-27T06:43:23.913Z,67.75
2018-05-27T06:45:58.535Z,67.99
2018-05-27T06:48:33.380Z,68.06
2018-05-27T06:51:08.148Z,67.79
2018-05-27T06:53:43.689Z,68.09
2018-05-27T06:56:18.392Z,67.43
2018-05-27T06:58:53.349Z,67.58
2018-05-27T07:01:28.097Z,67.29
2018-05-27T07:04:02.857Z,67.03
2018-05-27T07:06:37.649Z,66.78
2018-05-27T07:09:13.163Z,66.64
2018-05-27T07:11:47.930Z,66.19
2018-05-27T07:14:22.721Z,65.26
2018-05-27T07:16:57.540Z,65.01
2018-05-27T07:19:32.439Z,64.72
2018-05-27T07:22:07.448Z,64.15
2018-05-27T07:24:42.165Z,63.94
2018-05-27T07:27:16.990Z,63.49
2018-05-27T07:29:51.906Z,63.37
2018-05-27T07:32:26.653Z,63.74
2018-05-27T07:35:01.543Z,62.28
2018-05-27T07:37:36.441Z,62.29
2018-05-27T07:40:11.244Z,61.63
2018-05-27T07:42:46.204Z,61.99
2018-05-27T07:45:21.096Z,62.35
2018-05-27T07:47:55.821Z,61.83
2018-05-27T07:50:30.893Z,61.58
2018-05-27T07:53:05.495Z,60.98
2018-05-27T07:55:40.434Z,59.44
2018-05-27T07:58:15.332Z,59.91
2018-05-27T08:00:50.109Z,58.98
2018-05-27T08:03:24.701Z,58.91
2018-05-27T08:05:59.561Z,58.97
2018-05-27T08:08:34.405Z,59.67
2018-05-27T08:11:09.382Z,59.35
2018-05-27T08:13:44.233Z,58.86
2018-05-27T08:16:18.989Z,58.87
2018-05-27T08:18:53.710Z,58.04
2018-05-27T08:21:28.446Z,58.48
2018-05-27T08:24:03.150Z,58.29
2018-05-27T08:26:37.853Z,58.17
2018-05-27T08:29:12.514Z,58.15
2018-05-27T08:31:47.448Z,57.71
2018-05-27T08:34:22.943Z,56.72
2018-05-27T08:36:58.137Z,57.02
2018-05-27T08:39:32.965Z,57.09
2018-05-27T08:42:07.794Z,56.40
2018-05-27T08:44:42.529Z,56.02
2018-05-27T08:47:17.381Z,56.06
2018-05-27T08:49:52.183Z,56.83
2018-05-27T08:52:27.029Z,55.88
2018-05-27T08:55:01.817Z,56.01
2018-05-27T08:57:36.699Z,56.05
2018-05-27T09:00:11.998Z,54.87
2018-05-27T09:02:46.717Z,54.59
2018-05-27T09:05:21.377Z,54.90
2018-05-27T09:07:56.109Z,54.30
2018-05-27T09:10:30.897Z,54.80
2018-05-27T09:13:05.660Z,53.79
2018-05-27T09:15:40.387Z,53.81
2018-05-27T09:18:15.270Z,52.89
2018-05-27T09:20:50.168Z,51.79
2018-05-27T09:23:24.877Z,52.27
2018-05-27T09:25:59.788Z,51.67
2018-05-27T09:28:34.601Z,51.20
2018-05-27T09:31:09.077Z,52.22
2018-05-27T09:33:43.869Z,50.73
2018-05-27T09:36:18.784Z,50.92
2018-05-27T09:38:53.650Z,49.93
2018-05-27T09:41:28.500Z,50.99
2018-05-27T09:44:03.296Z,49.98
2018-05-27T09:46:38.458Z,50.90
2018-05-27T09:49:13.198Z,49.97
2018-05-27T09:51:47.824Z,48.86
2018-05-27T09:54:22.859Z,48.09
2018-05-27T09:56:57.802Z,48.77
2018-05-27T09:59:32.584Z,49.26
2018-05-27T10:02:07.786Z,49.98
2018-05-27T10:04:42.768Z,50.02
2018-05-27T10:07:17.592Z,50.40
2018-05-27T10:09:52.578Z,50.40
2018-05-27T10:12:27.403Z,48.15
2018-05-27T10:15:02.133Z,48.73
2018-05-27T10:17:36.901Z,49.01
2018-05-27T10:20:11.888Z,48.62
2018-05-27T10:22:46.837Z,48.67
2018-05-27T10:25:21.580Z,49.01
2018-05-27T10:27:56.502Z,48.31
2018-05-27T10:30:31.454Z,48.60
2018-05-27T10:33:06.413Z,47.95
2018-05-27T10:35:41.013Z,48.70
2018-05-27T10:38:15.706Z,48.57
2018-05-27T10:40:50.849Z,46.96
2018-05-27T10:43:25.574Z,46.80
2018-05-27T10:46:00.596Z,46.82
2018-05-27T10:48:35.047Z,45.63
2018-05-27T10:51:10.158Z,46.07
2018-05-27T10:53:44.773Z,46.74
2018-05-27T10:56:19.716Z,45.45
2018-05-27T10:58:54.602Z,45.38
2018-05-27T11:01:29.214Z,45.87
2018-05-27T11:04:04.042Z,47.18
2018-05-27T11:06:38.849Z,46.43
2018-05-27T11:09:13.732Z,45.49
2018-05-27T11:11:48.608Z,44.42
2018-05-27T11:14:23.249Z,44.32
2018-05-27T11:16:58.066Z,44.46
2018-05-27T11:19:32.714Z,44.97
2018-05-27T11:22:07.666Z,45.40
2018-05-27T11:24:43.108Z,44.31
2018-05-27T11:27:18.146Z,43.99
2018-05-27T11:29:53.066Z,43.03
2018-05-27T11:32:27.785Z,42.88
2018-05-27T11:35:02.282Z,44.21
2018-05-27T11:37:40.281Z,44.42
2018-05-27T11:40:14.945Z,43.20
2018-05-27T11:42:49.970Z,43.48
2018-05-27T11:45:24.556Z,43.88
2018-05-27T11:47:59.529Z,43.80
2018-05-27T11:50:34.438Z,43.22
2018-05-27T11:53:09.714Z,43.30
2018-05-27T11:55:44.418Z,42.80
2018-05-27T11:58:19.570Z,42.65
2018-05-27T12:00:54.803Z,40.52
2018-05-27T12:03:29.476Z,40.12
2018-05-27T12:06:04.404Z,39.49
2018-05-27T12:08:39.243Z,39.20
2018-05-27T12:11:13.769Z,40.62
2018-05-27T12:13:48.688Z,38.66
2018-05-27T12:16:23.577Z,38.25
2018-05-27T12:18:58.644Z,38.90
2018-05-27T12:21:33.482Z,38.54
2018-05-27T12:24:08.450Z,37.86
2018-05-27T12:26:43.364Z,37.21
2018-05-27T12:29:18.090Z,37.21
2018-05-27T12:31:53.194Z,38.43
2018-05-27T12:34:28.228Z,39.21
2018-05-27T12:37:03.561Z,38.73
2018-05-27T12:39:38.804Z,38.27
2018-05-27T12:42:13.649Z,38.80
2018-05-27T12:44:48.704Z,38.63
2018-05-27T12:47:23.380Z,38.62
2018-05-27T12:49:57.861Z,37.49
2018-05-27T12:52:32.989Z,36.73
2018-05-27T12:55:08.002Z,37.66
2018-05-27T12:57:42.827Z,37.77
2018-05-27T13:00:17.648Z,37.47
2018-05-27T13:02:52.699Z,38.13
2018-05-27T13:05:27.841Z,38.51
2018-05-27T13:08:02.324Z,37.17
2018-05-27T13:10:37.478Z,37.18
2018-05-27T13:13:12.641Z,37.44
2018-05-27T13:15:47.661Z,37.55
2018-05-27T13:18:22.709Z,36.73
2018-05-27T13:20:57.953Z,36.61
2018-05-27T13:23:32.777Z,36.71
2018-05-27T13:26:07.476Z,36.83
2018-05-27T13:28:42.444Z,36.82
2018-05-27T13:31:17.145Z,36.83
2018-05-27T13:33:51.925Z,36.93
2018-05-27T13:36:26.840Z,37.57
2018-05-27T13:39:01.738Z,37.54
2018-05-27T13:41:36.688Z,37.06
2018-05-27T13:44:11.541Z,36.63
2018-05-27T13:46:46.372Z,36.84
2018-05-27T13:49:21.420Z,37.61
2018-05-27T13:51:56.282Z,38.09
2018-05-27T13:54:31.429Z,38.21
2018-05-27T13:57:06.340Z,38.03
2018-05-27T13:59:41.134Z,37.86
2018-05-27T14:02:15.955Z,38.21
2018-05-27T14:04:50.845Z,38.38
2018-05-27T14:07:25.500Z,37.90
2018-05-27T14:10:00.409Z,36.94
2018-05-27T14:12:35.187Z,36.49
2018-05-27T14:15:09.407Z,36.25
2018-05-27T14:17:44.517Z,36.01
2018-05-27T14:20:19.575Z,36.73
2018-05-27T14:22:54.361Z,36.04
2018-05-27T14:25:29.376Z,36.10
2018-05-27T14:28:04.172Z,35.39
2018-05-27T14:30:38.537Z,35.07
2018-05-27T14:33:13.994Z,35.51
2018-05-27T14:35:48.885Z,35.54
2018-05-27T14:38:24.017Z,35.32
2018-05-27T14:40:58.817Z,35.19
2018-05-27T14:43:33.625Z,36.07
2018-05-27T14:46:08.409Z,36.21
2018-05-27T14:48:43.227Z,36.32
2018-05-27T14:51:18.089Z,36.80
2018-05-27T14:53:53.095Z,37.17
2018-05-27T14:56:27.977Z,36.51
2018-05-27T14:59:02.826Z,36.87
2018-05-27T15:01:37.780Z,37.35
2018-05-27T15:04:12.931Z,36.98
2018-05-27T15:06:47.609Z,37.29
2018-05-27T15:09:22.412Z,36.83
2018-05-27T15:11:57.431Z,37.78
2018-05-27T15:14:32.349Z,38.17
2018-05-27T15:17:07.252Z,37.68
2018-05-27T15:19:42.294Z,37.61
2018-05-27T15:22:16.847Z,37.98
2018-05-27T15:24:52.092Z,38.30
2018-05-27T15:27:26.836Z,38.41
2018-05-27T15:30:01.841Z,38.34
2018-05-27T15:32:36.801Z,38.70
2018-05-27T15:35:11.949Z,38.73
2018-05-27T15:37:46.657Z,39.18
2018-05-27T15:40:21.476Z,39.16
2018-05-27T15:42:56.285Z,39.46
2018-05-27T15:45:31.253Z,39.69
2018-05-27T15:48:05.860Z,39.66
2018-05-27T15:50:40.824Z,39.57
2018-05-27T15:53:15.709Z,39.96
2018-05-27T15:55:50.777Z,40.37
2018-05-27T15:58:25.725Z,40.44
2018-05-27T16:01:00.644Z,40.05
2018-05-27T16:03:35.453Z,40.67
2018-05-27T16:06:10.426Z,41.13
2018-05-27T16:08:45.180Z,41.58
2018-05-27T16:11:20.009Z,42.07
2018-05-27T16:13:54.966Z,42.16
2018-05-27T16:16:29.845Z,42.46
2018-05-27T16:19:04.312Z,42.73
2018-05-27T16:21:39.244Z,42.84
2018-05-27T16:24:14.359Z,43.16
2018-05-27T16:26:49.152Z,43.13
2018-05-27T16:29:23.803Z,43.08
2018-05-27T16:31:58.511Z,42.90
2018-05-27T16:34:33.248Z,43.07
2018-05-27T16:37:08.239Z,43.38
2018-05-27T16:39:43.433Z,43.58
2018-05-27T16:42:18.149Z,43.03
2018-05-27T16:44:53.593Z,43.29
2018-05-27T16:47:28.690Z,42.94
2018-05-27T16:53:00.941Z,43.42
2018-05-27T16:55:35.532Z,43.60
2018-05-27T16:58:10.689Z,43.83
2018-05-27T17:00:45.340Z,43.95
2018-05-27T17:03:20.005Z,44.24
2018-05-27T17:05:54.826Z,44.35
2018-05-27T17:08:38.816Z,44.85
2018-05-27T17:11:13.256Z,45.16
2018-05-27T17:13:47.964Z,45.82
2018-05-27T17:16:22.768Z,46.16
2018-05-27T17:18:57.608Z,46.47
2018-05-27T17:21:32.867Z,46.41
2018-05-27T17:24:07.905Z,46.82
2018-05-27T17:26:42.609Z,46.42
2018-05-27T17:29:17.911Z,46.72
2018-05-27T17:31:52.671Z,47.03
2018-05-27T17:34:27.621Z,47.18
2018-05-27T17:37:02.520Z,47.31
2018-05-27T17:39:37.761Z,47.41
2018-05-27T17:42:12.549Z,47.74
2018-05-27T17:44:47.609Z,47.93
2018-05-27T17:47:22.995Z,48.80
2018-05-27T17:49:58.249Z,49.77
2018-05-27T17:52:33.492Z,50.65
2018-05-27T17:55:08.849Z,51.34
2018-05-27T17:57:43.672Z,51.72
2018-05-27T18:00:18.549Z,52.33
2018-05-27T18:02:53.483Z,52.94
2018-05-27T18:05:28.593Z,53.78
2018-05-27T18:08:03.383Z,55.10
2018-05-27T18:10:38.128Z,58.14
2018-05-27T18:13:14.526Z,60.72
2018-05-27T18:15:49.897Z,62.74
2018-05-27T18:18:25.281Z,65.11
2018-05-27T18:21:00.629Z,65.98
2018-05-27T18:23:35.841Z,66.45
2018-05-27T18:26:10.664Z,67.75
2018-05-27T18:28:45.497Z,68.67
2018-05-27T18:31:20.531Z,70.36
2018-05-27T18:33:55.305Z,70.94
2018-05-27T18:36:30.109Z,70.77
2018-05-27T18:39:04.172Z,71.88
2018-05-27T18:41:40.050Z,72.61
2018-05-27T18:44:14.454Z,72.35
2018-05-27T18:46:49.368Z,72.58
2018-05-27T18:49:24.486Z,72.05
2018-05-27T18:51:59.925Z,70.94
2018-05-27T18:54:37.521Z,70.27
2018-05-27T18:57:12.108Z,69.28
2018-05-27T18:59:46.994Z,69.86
2018-05-27T19:02:21.924Z,71.52
2018-05-27T19:04:56.828Z,72.28
2018-05-27T19:07:31.805Z,72.79
2018-05-27T19:10:06.641Z,72.77
2018-05-27T19:12:41.528Z,73.48
2018-05-27T19:15:16.078Z,73.30
2018-05-27T19:17:51.205Z,73.76
2018-05-27T19:20:26.874Z,74.51
2018-05-27T19:23:01.625Z,74.24
2018-05-27T19:25:36.441Z,72.93
2018-05-27T19:28:11.233Z,72.28
2018-05-27T19:30:46.080Z,71.89
2018-05-27T19:33:20.984Z,72.37
2018-05-27T19:35:55.980Z,72.95
2018-05-27T19:38:31.009Z,73.40
2018-05-27T19:41:05.738Z,73.42
2018-05-27T19:43:40.660Z,72.66
2018-05-27T19:46:15.300Z,71.94
2018-05-27T19:48:50.072Z,71.63
2018-05-27T19:51:25.040Z,71.68
2018-05-27T19:54:00.160Z,71.47
2018-05-27T19:56:35.049Z,71.90
2018-05-27T19:59:09.858Z,71.94
2018-05-27T20:01:44.796Z,71.71
2018-05-27T20:04:19.312Z,72.13
2018-05-27T20:06:54.349Z,74.20
2018-05-27T20:09:29.390Z,77.37
2018-05-27T20:12:04.328Z,79.83
2018-05-27T20:14:39.145Z,81.43
2018-05-27T20:17:14.692Z,82.09
2018-05-27T20:19:49.428Z,82.27
2018-05-27T20:22:24.897Z,82.05
2018-05-27T20:25:00.456Z,81.58
2018-05-27T20:27:35.360Z,80.83
2018-05-27T20:30:10.289Z,80.16
2018-05-27T20:32:44.955Z,79.18
2018-05-27T20:35:19.738Z,78.49
2018-05-27T20:37:54.973Z,77.96
2018-05-27T20:40:29.921Z,77.25
2018-05-27T20:43:04.720Z,76.88
2018-05-27T20:45:39.404Z,76.99
2018-05-27T20:48:14.626Z,76.65
2018-05-27T20:50:49.308Z,76.08
2018-05-27T20:53:24.564Z,75.46
2018-05-27T20:55:59.829Z,76.08
2018-05-27T20:58:34.977Z,76.77
2018-05-27T21:01:09.816Z,76.72
2018-05-27T21:03:44.837Z,76.13
2018-05-27T21:06:20.051Z,77.03
2018-05-27T21:08:54.822Z,78.08
2018-05-27T21:11:29.295Z,77.80
2018-05-27T21:14:03.883Z,77.54
2018-05-27T21:16:39.197Z,77.69
2018-05-27T21:19:14.159Z,77.46
2018-05-27T21:21:49.106Z,77.12
2018-05-27T21:24:24.165Z,77.64
2018-05-27T21:26:58.908Z,78.26
2018-05-27T21:29:33.797Z,78.49
2018-05-27T21:32:08.753Z,78.53
2018-05-27T21:34:44.483Z,78.43
2018-05-27T21:37:18.899Z,78.31
2018-05-27T21:39:54.009Z,78.03
2018-05-27T21:42:28.529Z,78.12
2018-05-27T21:45:03.247Z,78.31
2018-05-27T21:47:38.089Z,78.66
2018-05-27T21:50:12.284Z,78.99
2018-05-27T21:52:46.788Z,79.35
2018-05-27T21:55:21.762Z,79.65
2018-05-27T21:57:56.562Z,79.39
2018-05-27T22:00:32.065Z,79.63
2018-05-27T22:03:06.524Z,80.22
2018-05-27T22:05:41.454Z,80.38
2018-05-27T22:08:16.148Z,80.44
2018-05-27T22:10:50.942Z,80.39
2018-05-27T22:13:25.801Z,80.65
2018-05-27T22:16:00.814Z,80.58
2018-05-27T22:18:36.066Z,80.58
2018-05-27T22:21:10.883Z,80.68
2018-05-27T22:23:45.741Z,80.68
2018-05-27T22:26:20.477Z,80.59
2018-05-27T22:28:55.297Z,80.65
2018-05-27T22:31:30.117Z,80.83
2018-05-27T22:34:04.819Z,80.87
2018-05-27T22:36:39.694Z,80.48
2018-05-27T22:39:14.514Z,80.73
2018-05-27T22:41:49.274Z,81.19
2018-05-27T22:44:24.245Z,81.59
2018-05-27T22:46:59.181Z,81.81
2018-05-27T22:49:34.228Z,82.00
2018-05-27T22:52:09.472Z,82.05
2018-05-27T22:54:44.224Z,81.90
2018-05-27T22:57:19.023Z,81.69
2018-05-27T22:59:53.978Z,81.68
2018-05-27T23:02:28.577Z,81.67
2018-05-27T23:05:03.579Z,81.59
2018-05-27T23:07:38.492Z,81.32
2018-05-27T23:10:13.458Z,81.10
2018-05-27T23:12:48.438Z,81.16
2018-05-27T23:15:23.449Z,82.96
2018-05-27T23:17:58.380Z,84.09
2018-05-27T23:20:33.121Z,85.00
2018-05-27T23:23:07.984Z,85.92
2018-05-27T23:25:42.805Z,86.19
2018-05-27T23:28:17.704Z,86.12
2018-05-27T23:30:52.557Z,85.80
2018-05-27T23:33:27.151Z,85.38
2018-05-27T23:36:02.097Z,85.05
2018-05-27T23:38:36.916Z,85.00
2018-05-27T23:41:11.849Z,84.63
2018-05-27T23:43:46.806Z,84.44
2018-05-27T23:46:21.761Z,83.31
2018-05-27T23:48:56.700Z,83.04
2018-05-27T23:51:31.769Z,83.37
2018-05-27T23:54:06.556Z,83.64
2018-05-27T23:56:41.574Z,83.83
2018-05-27T23:59:16.421Z,84.22
